createdAt,value
2023-01-26T00:00:13.114Z,68.93
2023-01-26T00:05:39.724Z,70.79
2023-01-26T00:10:50.431Z,63.09
2023-01-26T00:15:53.530Z,60.20
2023-01-26T00:21:02.297Z,51.75
2023-01-26T00:26:19.868Z,52.05
2023-01-26T00:31:27.466Z,55.18
2023-01-26T00:36:30.739Z,58.20
2023-01-26T00:41:52.675Z,60.97
2023-01-26T00:46:55.821Z,71.50
2023-01-26T00:51:59.095Z,72.62
2023-01-26T00:57:02.501Z,66.67
2023-01-26T01:02:05.751Z,60.88
2023-01-26T01:07:09.021Z,54.98
2023-01-26T01:12:12.028Z,53.95
2023-01-26T01:17:15.075Z,57.10
2023-01-26T01:22:18.644Z,62.97
2023-01-26T01:27:21.764Z,71.34
2023-01-26T01:32:25.066Z,66.90
2023-01-26T01:37:30.106Z,63.04
2023-01-26T01:42:34.645Z,58.84
2023-01-26T01:47:37.777Z,52.88
2023-01-26T01:52:41.182Z,54.71
2023-01-26T01:57:54.963Z,55.71
2023-01-26T02:03:11.320Z,59.51
2023-01-26T02:08:18.596Z,67.35
2023-01-26T02:13:25.218Z,69.56
2023-01-26T02:18:29.478Z,65.23
2023-01-26T02:24:06.200Z,62.02
2023-01-26T02:29:11.935Z,54.72
2023-01-26T02:34:15.262Z,57.23
2023-01-26T02:40:05.808Z,57.37
2023-01-26T02:45:14.639Z,58.56
2023-01-26T02:50:18.258Z,65.11
2023-01-26T02:55:25.652Z,73.46
2023-01-26T03:00:35.109Z,67.58
2023-01-26T03:05:38.208Z,62.34
2023-01-26T03:10:42.105Z,54.66
2023-01-26T03:15:52.918Z,53.62
2023-01-26T03:21:15.095Z,57.36
2023-01-26T03:26:37.007Z,59.48
2023-01-26T03:31:40.169Z,61.59
2023-01-26T03:36:43.669Z,70.52
2023-01-26T03:42:05.481Z,74.69
2023-01-26T03:47:27.357Z,69.36
2023-01-26T03:52:52.040Z,62.26
2023-01-26T03:57:55.140Z,52.61
2023-01-26T04:03:16.884Z,53.16
2023-01-26T04:08:23.479Z,54.91
2023-01-26T04:13:45.215Z,58.61
2023-01-26T04:19:07.266Z,71.45
2023-01-26T04:24:16.768Z,67.73
2023-01-26T04:29:20.230Z,59.33
2023-01-26T04:34:23.350Z,51.59
2023-01-26T04:39:26.546Z,53.00
2023-01-26T04:44:29.796Z,55.51
2023-01-26T04:49:32.969Z,57.55
2023-01-26T04:54:36.076Z,59.87
2023-01-26T04:59:39.183Z,72.12
2023-01-26T05:04:42.223Z,72.86
2023-01-26T05:09:45.293Z,63.64
2023-01-26T05:14:48.398Z,54.06
2023-01-26T05:19:51.395Z,52.52
2023-01-26T05:24:54.512Z,54.37
2023-01-26T05:30:00.802Z,56.65
2023-01-26T05:35:06.689Z,68.21
2023-01-26T05:40:12.401Z,68.70
2023-01-26T05:45:16.630Z,61.63
2023-01-26T05:50:20.068Z,54.54
2023-01-26T05:55:23.811Z,52.19
2023-01-26T06:00:27.208Z,65.31
2023-01-26T06:05:30.223Z,65.09
2023-01-26T06:10:35.985Z,60.07
2023-01-26T06:15:39.503Z,51.88
2023-01-26T06:20:44.335Z,51.05
2023-01-26T06:25:47.664Z,55.95
2023-01-26T06:30:50.969Z,59.17
2023-01-26T06:35:54.784Z,59.88
2023-01-26T06:41:03.342Z,61.48
2023-01-26T06:46:07.392Z,74.97
2023-01-26T06:51:16.391Z,69.67
2023-01-26T06:56:20.963Z,63.22
2023-01-26T07:01:27.139Z,54.25
2023-01-26T07:06:30.611Z,52.35
2023-01-26T07:11:33.738Z,54.31
2023-01-26T07:16:36.996Z,58.62
2023-01-26T07:21:40.876Z,63.53
2023-01-26T07:26:44.084Z,72.98
2023-01-26T07:31:47.383Z,64.65
2023-01-26T07:36:53.263Z,54.64
2023-01-26T07:41:56.290Z,52.65
2023-01-26T07:46:59.773Z,56.69
2023-01-26T07:52:04.729Z,57.67
2023-01-26T07:57:08.567Z,59.08
2023-01-26T08:02:11.860Z,60.98
2023-01-26T08:07:15.990Z,72.51
2023-01-26T08:12:19.101Z,74.32
2023-01-26T08:17:22.148Z,64.20
2023-01-26T08:22:25.819Z,56.02
2023-01-26T08:27:28.938Z,54.64
2023-01-26T08:32:32.138Z,57.23
2023-01-26T08:37:35.346Z,57.85
2023-01-26T08:42:38.522Z,59.38
2023-01-26T08:47:41.662Z,70.40
2023-01-26T08:52:45.276Z,71.25
2023-01-26T08:57:55.305Z,61.69
2023-01-26T09:03:03.927Z,53.51
2023-01-26T09:08:09.249Z,51.74
2023-01-26T09:13:12.454Z,52.99
2023-01-26T09:18:15.988Z,56.19
2023-01-26T09:23:19.070Z,57.94
2023-01-26T09:28:22.386Z,61.80
2023-01-26T09:33:27.133Z,74.60
2023-01-26T09:38:31.357Z,67.58
2023-01-26T09:43:55.158Z,61.47
2023-01-26T09:49:16.057Z,53.38
2023-01-26T09:54:42.979Z,52.65
2023-01-26T10:00:26.256Z,56.53
2023-01-26T10:05:42.514Z,68.83
2023-01-26T10:11:03.567Z,67.90
2023-01-26T10:16:11.211Z,62.17
2023-01-26T10:21:19.042Z,53.54
2023-01-26T10:26:24.239Z,56.58
2023-01-26T10:31:32.706Z,66.39
2023-01-26T10:36:36.161Z,67.62
2023-01-26T10:41:39.879Z,63.99
2023-01-26T10:46:43.193Z,54.39
2023-01-26T10:52:11.841Z,51.61
2023-01-26T10:57:29.724Z,56.52
2023-01-26T11:02:35.473Z,69.28
2023-01-26T11:07:42.095Z,63.42
2023-01-26T11:12:45.211Z,54.61
2023-01-26T11:18:22.967Z,53.04
2023-01-26T11:23:54.248Z,57.88
2023-01-26T11:29:31.621Z,57.09
2023-01-26T11:34:59.216Z,58.77
2023-01-26T11:40:25.376Z,60.84
2023-01-26T11:46:27.319Z,72.38
2023-01-26T11:51:58.180Z,69.60
2023-01-26T11:57:28.035Z,60.89
2023-01-26T12:02:37.503Z,50.58
2023-01-26T12:08:03.519Z,51.81
2023-01-26T12:13:36.930Z,55.73
2023-01-26T12:19:11.126Z,58.41
2023-01-26T12:24:54.280Z,61.92
2023-01-26T12:30:44.886Z,74.01
2023-01-26T12:36:17.008Z,66.31
2023-01-26T12:41:37.019Z,57.16
2023-01-26T12:46:52.530Z,53.27
2023-01-26T12:52:08.317Z,54.62
2023-01-26T12:57:18.944Z,58.00
2023-01-26T13:02:30.537Z,65.66
2023-01-26T13:07:41.316Z,73.48
2023-01-26T13:12:51.432Z,66.17
2023-01-26T13:18:03.106Z,61.02
2023-01-26T13:23:28.447Z,50.98
2023-01-26T13:28:31.602Z,51.07
2023-01-26T13:33:34.930Z,54.90
2023-01-26T13:38:44.205Z,58.15
2023-01-26T13:43:59.969Z,69.12
2023-01-26T13:49:03.192Z,68.43
2023-01-26T13:54:15.728Z,56.64
2023-01-26T13:59:20.983Z,51.03
2023-01-26T14:04:31.544Z,52.16
2023-01-26T14:09:47.889Z,54.12
2023-01-26T14:15:04.893Z,62.15
2023-01-26T14:20:40.151Z,73.29
2023-01-26T14:25:49.815Z,64.71
2023-01-26T14:31:21.399Z,52.34
2023-01-26T14:36:32.339Z,50.76
2023-01-26T14:41:37.915Z,53.05
2023-01-26T14:46:59.187Z,56.07
2023-01-26T14:52:03.017Z,57.66
2023-01-26T14:57:09.612Z,59.02
2023-01-26T15:02:38.511Z,69.42
2023-01-26T15:07:41.643Z,72.32
2023-01-26T15:12:44.804Z,64.63
2023-01-26T15:18:06.786Z,55.22
2023-01-26T15:23:25.944Z,55.10
2023-01-26T15:28:29.457Z,55.60
2023-01-26T15:33:44.962Z,58.52
2023-01-26T15:38:48.567Z,60.56
2023-01-26T15:43:51.783Z,72.55
2023-01-26T15:48:56.067Z,71.84
2023-01-26T15:53:59.244Z,65.77
2023-01-26T15:59:02.322Z,61.94
2023-01-26T16:04:05.638Z,54.85
2023-01-26T16:09:08.843Z,53.07
2023-01-26T16:14:14.535Z,54.78
2023-01-26T16:19:34.430Z,56.98
2023-01-26T16:24:40.177Z,59.21
2023-01-26T16:29:43.284Z,69.90
2023-01-26T16:34:46.493Z,72.94
2023-01-26T16:39:49.700Z,64.24
2023-01-26T16:44:53.020Z,55.79
2023-01-26T16:49:56.252Z,53.83
2023-01-26T16:54:59.347Z,55.29
2023-01-26T17:00:03.150Z,57.14
2023-01-26T17:05:07.295Z,58.91
2023-01-26T17:10:13.425Z,60.83
2023-01-26T17:15:16.989Z,70.91
2023-01-26T17:20:20.303Z,73.56
2023-01-26T17:25:23.722Z,65.05
2023-01-26T17:30:27.379Z,62.79
2023-01-26T17:35:30.641Z,55.68
2023-01-26T17:40:33.845Z,54.15
2023-01-26T17:45:37.074Z,55.26
2023-01-26T17:50:40.564Z,58.67
2023-01-26T17:55:44.397Z,60.09
2023-01-26T18:00:47.728Z,70.42
2023-01-26T18:05:55.399Z,71.48
2023-01-26T18:11:04.923Z,63.46
2023-01-26T18:16:12.312Z,54.79
2023-01-26T18:21:22.764Z,53.72
2023-01-26T18:26:30.138Z,56.37
2023-01-26T18:31:42.285Z,58.71
2023-01-26T18:36:45.595Z,70.52
2023-01-26T18:41:48.952Z,69.81
2023-01-26T18:46:52.215Z,62.53
2023-01-26T18:51:55.326Z,54.44
2023-01-26T18:56:58.522Z,53.79
2023-01-26T19:02:03.083Z,55.06
2023-01-26T19:07:12.184Z,57.04
2023-01-26T19:12:21.788Z,58.47
2023-01-26T19:17:26.725Z,57.27
2023-01-26T19:22:30.147Z,60.77
2023-01-26T19:27:33.564Z,72.40
2023-01-26T19:32:36.756Z,74.91
2023-01-26T19:37:40.269Z,65.33
2023-01-26T19:42:43.381Z,61.01
2023-01-26T19:47:47.051Z,52.61
2023-01-26T19:52:50.215Z,51.52
2023-01-26T19:57:53.413Z,54.00
2023-01-26T20:02:56.626Z,55.77
2023-01-26T20:07:59.800Z,57.90
2023-01-26T20:13:02.841Z,60.67
2023-01-26T20:18:07.567Z,72.04
2023-01-26T20:23:10.695Z,73.70
2023-01-26T20:28:14.964Z,66.25
2023-01-26T20:33:18.435Z,60.00
2023-01-26T20:38:21.746Z,52.79
2023-01-26T20:43:24.876Z,53.27
2023-01-26T20:48:28.164Z,55.97
2023-01-26T20:53:31.285Z,58.91
2023-01-26T20:58:34.816Z,61.24
2023-01-26T21:03:39.032Z,71.44
2023-01-26T21:08:42.536Z,72.91
2023-01-26T21:13:45.667Z,65.77
2023-01-26T21:18:49.767Z,62.56
2023-01-26T21:23:53.216Z,61.05
2023-01-26T21:28:59.819Z,54.98
2023-01-26T21:34:03.107Z,53.79
2023-01-26T21:39:11.014Z,55.97
2023-01-26T21:44:18.798Z,58.52
2023-01-26T21:49:24.185Z,60.89
2023-01-26T21:54:30.030Z,68.92
2023-01-26T21:59:33.174Z,72.68
2023-01-26T22:04:36.361Z,67.93
2023-01-26T22:09:40.698Z,64.09
2023-01-26T22:14:43.811Z,62.10
2023-01-26T22:19:47.336Z,53.84
2023-01-26T22:24:50.425Z,53.29
2023-01-26T22:29:53.634Z,54.92
2023-01-26T22:34:56.978Z,57.11
2023-01-26T22:40:00.159Z,58.74
2023-01-26T22:45:03.770Z,60.51
2023-01-26T22:50:08.403Z,71.85
2023-01-26T22:55:11.723Z,72.88
2023-01-26T23:00:15.416Z,66.11
2023-01-26T23:05:18.551Z,60.52
2023-01-26T23:10:21.760Z,53.50
2023-01-26T23:15:24.988Z,52.40
2023-01-26T23:20:28.182Z,54.25
2023-01-26T23:25:50.330Z,56.67
2023-01-26T23:30:56.159Z,58.21
2023-01-26T23:36:00.166Z,59.78
2023-01-26T23:41:05.580Z,70.02
2023-01-26T23:46:10.780Z,72.98
2023-01-26T23:51:13.987Z,66.73
2023-01-26T23:56:18.184Z,62.96
